Time;durP1;ratioP1;P1;durP2;ratioP2;P2;SDS_P1;SDS_P2;PMS_P1;PMS_P2;Temp;Humidity;BMP_temperature;BMP_pressure;BME280_temperature;BME280_humidity;BME280_pressure;Samples;Min_cycle;Max_cycle;Signal;HPM_P1;HPM_P2
2022/06/28 00:03:04;;;;;;;8.03;6.87;;;;;;;26.49;75.46;100095.91;2833658;81;20989;-84
2022/06/28 00:07:05;;;;;;;10.30;7.70;;;;;;;26.48;76.23;100094.25;2868034;81;21078;-83
2022/06/28 00:11:08;;;;;;;9.78;8.15;;;;;;;26.48;76.47;100080.61;2833501;81;21113;-84
2022/06/28 00:19:32;;;;;;;8.90;8.08;;;;;;;26.57;76.00;100095.56;2836447;81;21020;-85
2022/06/28 00:23:35;;;;;;;8.75;7.30;;;;;;;26.61;75.57;100100.84;2804633;81;21056;-85
2022/06/28 00:27:37;;;;;;;7.97;7.25;;;;;;;26.64;75.04;100110.45;2861579;81;21050;-84
2022/06/28 00:31:39;;;;;;;9.83;8.73;;;;;;;26.65;74.90;100118.94;2836298;81;21505;-85
2022/06/28 00:35:41;;;;;;;9.20;8.33;;;;;;;26.65;74.73;100119.75;2849505;81;20991;-84
2022/06/28 00:39:42;;;;;;;9.70;8.75;;;;;;;26.64;74.60;100137.19;2846186;81;21076;-84
2022/06/28 00:43:44;;;;;;;8.48;7.53;;;;;;;26.65;74.39;100157.94;2843422;81;21003;-85
2022/06/28 00:47:45;;;;;;;7.00;6.28;;;;;;;26.67;74.32;100165.90;2849970;81;21042;-84
2022/06/28 00:51:47;;;;;;;6.85;6.22;;;;;;;26.61;74.62;100154.02;2846764;81;21089;-84
2022/06/28 00:55:48;;;;;;;7.35;6.60;;;;;;;26.58;74.81;100146.32;2847305;81;21054;-84
2022/06/28 00:59:50;;;;;;;10.28;6.90;;;;;;;26.50;74.89;100146.13;2855685;81;21040;-84
2022/06/28 01:03:53;;;;;;;7.35;6.55;;;;;;;26.52;74.87;100161.72;2870216;81;21993;-84
2022/06/28 01:07:55;;;;;;;7.65;6.97;;;;;;;26.34;74.84;100168.63;2853785;81;21034;-84
2022/06/28 01:11:56;;;;;;;6.20;5.70;;;;;;;26.23;73.96;100168.90;2838617;81;21332;-83
2022/06/28 01:15:58;;;;;;;7.17;6.47;;;;;;;26.19;73.78;100168.52;2842305;81;21050;-83
2022/06/28 01:19:59;;;;;;;6.95;6.45;;;;;;;26.09;74.11;100175.87;2848915;81;21022;-84
2022/06/28 01:24:01;;;;;;;7.20;6.17;;;;;;;26.05;73.75;100169.22;2841360;83;21018;-85
2022/06/28 01:28:05;;;;;;;7.90;6.53;;;;;;;25.97;73.84;100175.02;2851585;81;21105;-84
2022/06/28 01:32:08;;;;;;;7.60;6.80;;;;;;;25.94;73.81;100160.46;2832923;81;21021;-84
2022/06/28 01:36:10;;;;;;;6.53;5.83;;;;;;;25.78;73.83;100165.52;2834763;81;21507;-83
2022/06/28 01:40:11;;;;;;;8.68;6.53;;;;;;;25.74;74.19;100183.36;2856909;81;21007;-85
2022/06/28 01:44:13;;;;;;;7.65;6.85;;;;;;;25.52;74.59;100173.48;2858193;81;21016;-84
2022/06/28 01:48:18;;;;;;;8.60;4.87;;;;;;;25.42;74.92;100193.05;2803200;83;21081;-84
2022/06/28 01:52:18;;;;;;;6.67;5.30;;;;;;;25.33;75.55;100212.09;2839964;81;21290;-84
2022/06/28 01:56:20;;;;;;;8.50;5.97;;;;;;;25.28;77.65;100227.76;2832671;81;21038;-84
2022/06/28 02:00:21;;;;;;;6.78;5.78;;;;;;;25.14;78.37;100238.46;2831788;81;21295;-84
2022/06/28 02:04:26;;;;;;;5.95;5.30;;;;;;;24.99;78.82;100243.71;2841101;81;21111;-85
2022/06/28 02:08:28;;;;;;;12.82;4.67;;;;;;;24.80;79.78;100237.40;2832683;81;21030;-85
2022/06/28 02:12:29;;;;;;;12.80;5.67;;;;;;;24.72;80.02;100253.94;2794703;83;21035;-85
2022/06/28 02:16:31;;;;;;;7.40;5.83;;;;;;;24.64;80.35;100258.61;2868220;80;21028;-85
2022/06/28 02:20:33;;;;;;;10.48;5.95;;;;;;;24.52;80.96;100276.16;2821758;82;21072;-85
2022/06/28 02:24:35;;;;;;;5.35;4.85;;;;;;;24.50;80.98;100294.57;2817485;83;21815;-84
2022/06/28 02:28:36;;;;;;;6.53;5.05;;;;;;;24.47;81.29;100305.04;2895630;81;21051;-85
2022/06/28 02:32:37;;;;;;;8.33;5.60;;;;;;;24.44;82.24;100314.99;2859441;81;21026;-85
2022/06/28 02:40:58;;;;;;;8.23;5.17;;;;;;;24.31;83.43;100326.23;2880535;82;21069;-86
2022/06/28 02:45:00;;;;;;;6.40;5.20;;;;;;;24.22;84.02;100320.74;2880598;82;21010;-85
2022/06/28 02:49:01;;;;;;;7.65;5.60;;;;;;;24.08;84.86;100315.35;2853713;82;21050;-82
2022/06/28 02:53:03;;;;;;;8.35;6.35;;;;;;;24.04;84.99;100329.06;2881047;82;21018;-82
2022/06/28 02:57:05;;;;;;;11.63;5.25;;;;;;;24.01;85.30;100333.54;2831141;82;20998;-82
2022/06/28 03:01:06;;;;;;;8.08;6.25;;;;;;;23.88;86.26;100326.27;2847059;81;21010;-82
2022/06/28 03:05:10;;;;;;;8.65;5.70;;;;;;;23.72;87.54;100330.80;2840873;82;21030;-83
2022/06/28 03:09:12;;;;;;;6.57;6.03;;;;;;;23.54;88.80;100339.89;2880064;81;21080;-84
2022/06/28 03:13:13;;;;;;;8.53;6.60;;;;;;;23.41;90.14;100338.56;2850909;81;21006;-91
2022/06/28 03:17:15;;;;;;;7.17;5.97;;;;;;;23.17;92.03;100350.30;2877547;81;20952;-83
2022/06/28 03:21:16;;;;;;;8.95;7.58;;;;;;;23.09;92.14;100339.66;2855025;81;21018;-86
2022/06/28 03:25:17;;;;;;;8.63;7.83;;;;;;;22.81;93.87;100341.50;2853469;81;21046;-84
2022/06/28 03:29:19;;;;;;;8.43;7.28;;;;;;;22.72;95.06;100356.81;2844054;81;21065;-86
2022/06/28 03:33:20;;;;;;;11.68;7.65;;;;;;;22.58;95.92;100378.45;2845472;81;21542;-85
2022/06/28 03:37:21;;;;;;;8.18;7.42;;;;;;;22.54;96.72;100399.72;2862434;82;21006;-86
2022/06/28 03:41:23;;;;;;;7.60;6.90;;;;;;;22.52;96.77;100400.95;2863321;82;20993;-86
2022/06/28 03:45:24;;;;;;;8.60;7.55;;;;;;;22.46;96.91;100393.61;2930705;80;21046;-86
2022/06/28 03:49:26;;;;;;;8.28;7.25;;;;;;;22.50;96.69;100382.70;2896115;80;21655;-86
2022/06/28 03:53:27;;;;;;;20.37;8.80;;;;;;;22.53;96.10;100367.39;2853236;82;21015;-85
2022/06/28 03:57:28;;;;;;;14.15;8.85;;;;;;;22.51;95.08;100385.73;2884639;80;21006;-84
2022/06/28 04:01:30;;;;;;;52.30;14.53;;;;;;;22.56;95.30;100387.84;2888341;81;20991;-84
2022/06/28 04:05:31;;;;;;;8.85;6.85;;;;;;;22.60;94.62;100384.53;2827672;82;21677;-83
2022/06/28 04:09:32;;;;;;;6.50;5.90;;;;;;;22.67;93.79;100349.28;2843679;81;21004;-83
2022/06/28 04:13:33;;;;;;;6.97;6.03;;;;;;;22.72;93.51;100321.56;2863665;81;21007;-84
2022/06/28 04:17:35;;;;;;;8.48;6.75;;;;;;;22.75;93.23;100289.97;2879655;81;20991;-84
2022/06/28 04:21:36;;;;;;;12.75;7.25;;;;;;;22.85;92.27;100260.59;2873814;81;21058;-82
2022/06/28 04:25:37;;;;;;;10.50;7.08;;;;;;;22.81;92.59;100300.83;2878577;81;21003;-84
2022/06/28 04:29:38;;;;;;;6.37;5.78;;;;;;;22.72;93.01;100311.57;2864711;81;21031;-84
2022/06/28 04:33:39;;;;;;;7.78;6.95;;;;;;;22.54;94.44;100320.27;2844703;81;21023;-83
2022/06/28 04:37:41;;;;;;;6.83;5.72;;;;;;;22.59;94.48;100327.80;2853878;81;21514;-84
2022/06/28 04:41:42;;;;;;;28.35;9.08;;;;;;;22.50;95.11;100339.34;2872289;82;21058;-85
2022/06/28 04:45:43;;;;;;;6.95;5.80;;;;;;;22.48;95.15;100341.42;2858427;82;21597;-82
2022/06/28 04:49:45;;;;;;;7.17;6.42;;;;;;;22.45;94.72;100341.27;2849860;82;21023;-85
2022/06/28 04:53:49;;;;;;;7.90;6.30;;;;;;;22.38;94.84;100348.02;2855370;82;21047;-84
2022/06/28 04:57:51;;;;;;;6.85;6.25;;;;;;;22.46;94.59;100354.31;2832628;82;21062;-84
2022/06/28 05:01:52;;;;;;;10.80;7.75;;;;;;;22.36;95.15;100375.02;2843344;82;21051;-85
2022/06/28 05:05:54;;;;;;;9.80;6.55;;;;;;;22.29;95.27;100363.29;2854809;81;21028;-86
2022/06/28 05:09:55;;;;;;;8.65;7.08;;;;;;;22.32;95.10;100371.05;2837817;82;21026;-86
2022/06/28 05:13:58;;;;;;;8.13;6.80;;;;;;;22.21;95.78;100366.50;2838936;82;21141;-86
2022/06/28 05:17:59;;;;;;;9.18;6.80;;;;;;;22.29;95.24;100364.64;2818551;84;20971;-85
2022/06/28 05:22:00;;;;;;;8.20;5.67;;;;;;;22.38;94.31;100381.88;2853745;82;21131;-85
2022/06/28 05:26:01;;;;;;;11.55;6.87;;;;;;;22.43;93.73;100394.84;2853062;81;21076;-84
2022/06/28 05:30:03;;;;;;;8.15;6.17;;;;;;;22.56;92.62;100396.80;2877539;82;21001;-85
2022/06/28 05:34:05;;;;;;;5.53;4.87;;;;;;;22.70;91.96;100422.61;2853324;82;21022;-85
2022/06/28 05:38:07;;;;;;;6.42;5.08;;;;;;;22.76;90.92;100436.70;2828906;83;20995;-85
2022/06/28 05:42:09;;;;;;;5.72;4.78;;;;;;;22.74;90.31;100441.48;2849406;83;21003;-84
2022/06/28 05:46:10;;;;;;;9.30;6.37;;;;;;;22.73;90.67;100451.52;2864422;82;21129;-85
2022/06/28 05:50:12;;;;;;;6.65;4.75;;;;;;;22.81;90.36;100445.90;2842072;82;21561;-84
2022/06/28 05:54:13;;;;;;;4.47;4.08;;;;;;;22.86;90.05;100464.28;2885679;81;21058;-83
2022/06/28 05:58:14;;;;;;;6.80;4.75;;;;;;;23.08;89.58;100472.28;2900075;80;21011;-85
2022/06/28 06:02:16;;;;;;;14.23;7.45;;;;;;;23.24;88.42;100472.41;2842859;82;21011;-85
2022/06/28 06:06:17;;;;;;;5.97;5.47;;;;;;;23.51;86.79;100479.30;2872075;82;21022;-85
2022/06/28 06:10:19;;;;;;;5.50;4.83;;;;;;;23.56;85.81;100488.16;2832858;82;21028;-85
2022/06/28 06:14:21;;;;;;;6.65;5.95;;;;;;;23.74;85.06;100481.59;2866080;82;20995;-85
2022/06/28 06:18:23;;;;;;;13.85;6.97;;;;;;;24.31;82.45;100473.00;2833704;82;21014;-85
2022/06/28 06:22:24;;;;;;;6.62;5.60;;;;;;;24.83;80.20;100492.64;2843098;82;21023;-86
2022/06/28 06:26:25;;;;;;;7.10;5.65;;;;;;;25.41;78.88;100489.51;2846280;82;21010;-85
2022/06/28 06:30:27;;;;;;;5.78;4.67;;;;;;;26.04;75.78;100486.93;2871862;82;21019;-84
2022/06/28 06:34:29;;;;;;;5.05;4.55;;;;;;;26.28;74.34;100487.98;2844654;82;21589;-85
2022/06/28 06:38:30;;;;;;;5.33;4.78;;;;;;;26.46;72.96;100485.83;2833958;82;21027;-85
2022/06/28 06:42:32;;;;;;;5.12;4.62;;;;;;;26.51;71.36;100483.75;2837818;82;30622;-86
2022/06/28 06:46:34;;;;;;;7.00;6.30;;;;;;;26.17;72.01;100493.66;2863040;81;21078;-85
2022/06/28 06:50:35;;;;;;;5.30;4.67;;;;;;;26.02;72.35;100498.59;2835465;81;21016;-85
2022/06/28 06:54:36;;;;;;;20.95;6.47;;;;;;;26.31;71.84;100512.62;2833627;81;20995;-83
2022/06/28 06:58:38;;;;;;;6.42;5.83;;;;;;;25.76;73.44;100512.75;2829705;81;21018;-85
2022/06/28 07:02:43;;;;;;;8.95;6.58;;;;;;;25.61;74.90;100517.16;2835048;81;21036;-85
2022/06/28 07:06:44;;;;;;;6.10;5.50;;;;;;;25.54;75.18;100528.09;2833136;81;21014;-85
2022/06/28 07:10:45;;;;;;;12.47;5.80;;;;;;;25.77;74.44;100533.48;2839395;81;21060;-84
2022/06/28 07:14:46;;;;;;;7.67;5.75;;;;;;;26.18;73.21;100531.30;2842490;81;20975;-82
2022/06/28 07:18:48;;;;;;;6.12;5.53;;;;;;;26.38;73.54;100533.83;2836629;81;20983;-84
2022/06/28 07:22:49;;;;;;;8.13;6.97;;;;;;;26.33;72.67;100548.13;2845112;81;21046;-85
2022/06/28 07:26:50;;;;;;;12.43;7.87;;;;;;;25.92;74.29;100567.22;2858747;81;21394;-85
2022/06/28 07:30:52;;;;;;;7.90;6.60;;;;;;;25.35;77.13;100576.97;2845831;81;21125;-84
2022/06/28 07:34:53;;;;;;;5.50;5.00;;;;;;;25.21;77.72;100573.48;2840611;80;21040;-82
2022/06/28 07:38:54;;;;;;;4.30;3.65;;;;;;;24.92;79.21;100593.36;2780523;83;21020;-85
2022/06/28 07:42:56;;;;;;;6.35;3.58;;;;;;;24.18;81.52;100614.36;2838697;81;21018;-85
2022/06/28 07:46:57;;;;;;;7.50;4.33;;;;;;;23.63;84.21;100603.88;2864571;81;20971;-83
2022/06/28 07:55:19;;;;;;;4.35;3.95;;;;;;;23.00;88.41;100626.55;2824514;82;21031;-84
2022/06/28 07:59:20;;;;;;;22.67;5.80;;;;;;;22.73;89.63;100632.33;2839295;83;21047;-85
2022/06/28 08:03:21;;;;;;;4.17;3.87;;;;;;;22.33;92.28;100648.56;2767017;83;21018;-84
2022/06/28 08:07:23;;;;;;;5.10;4.65;;;;;;;22.17;94.45;100663.72;2833445;82;21605;-85
2022/06/28 08:11:24;;;;;;;7.97;5.42;;;;;;;21.99;96.94;100666.89;2813327;83;21014;-85
2022/06/28 08:15:25;;;;;;;5.28;4.78;;;;;;;21.89;97.57;100672.08;2832856;81;21054;-85
2022/06/28 08:19:26;;;;;;;6.72;5.87;;;;;;;21.76;98.35;100667.89;2811375;81;20987;-85
2022/06/28 08:23:28;;;;;;;7.70;7.00;;;;;;;21.77;98.24;100679.05;2813866;81;21058;-84
2022/06/28 08:27:29;;;;;;;8.25;6.08;;;;;;;21.81;96.65;100674.42;2846216;81;21059;-84
2022/06/28 08:31:31;;;;;;;6.35;5.80;;;;;;;22.04;94.96;100675.27;2836312;82;21062;-85
2022/06/28 08:35:32;;;;;;;9.13;6.85;;;;;;;22.51;91.15;100653.55;2804921;81;21051;-82
2022/06/28 08:39:33;;;;;;;8.58;6.05;;;;;;;23.37;86.91;100641.26;2834129;80;21038;-83
2022/06/28 08:43:34;;;;;;;8.13;6.42;;;;;;;23.94;82.57;100647.81;2843118;81;21018;-85
2022/06/28 08:47:39;;;;;;;12.23;10.10;;;;;;;24.28;78.46;100644.66;2868951;81;21046;-85
2022/06/28 08:51:41;;;;;;;9.15;8.20;;;;;;;24.72;76.78;100644.22;2866159;81;21035;-84
2022/06/28 08:55:43;;;;;;;12.10;9.55;;;;;;;25.03;75.62;100630.49;2847205;81;21093;-85
2022/06/28 08:59:46;;;;;;;11.35;9.90;;;;;;;25.23;74.94;100628.54;2854576;82;21006;-86
2022/06/28 09:03:51;;;;;;;13.00;10.55;;;;;;;25.27;74.61;100635.77;2861354;81;21066;-85
2022/06/28 09:07:56;;;;;;;12.45;9.08;;;;;;;25.32;74.18;100640.02;2839500;81;21032;-84
2022/06/28 09:11:58;;;;;;;13.20;11.88;;;;;;;25.29;72.88;100640.97;2835449;81;21044;-85
2022/06/28 09:16:04;;;;;;;11.78;8.95;;;;;;;25.28;72.46;100645.59;2848077;81;21649;-85
2022/06/28 09:20:09;;;;;;;10.90;9.78;;;;;;;25.14;72.07;100646.69;2859683;81;21004;-84
2022/06/28 09:24:10;;;;;;;14.20;10.23;;;;;;;25.02;74.07;100657.39;2834888;81;21032;-85
2022/06/28 09:28:11;;;;;;;12.00;7.20;;;;;;;25.64;73.04;100658.34;2841694;81;21050;-84
2022/06/28 09:32:13;;;;;;;9.53;8.30;;;;;;;26.28;68.99;100658.39;2823838;81;21058;-85
2022/06/28 09:36:17;;;;;;;6.87;6.22;;;;;;;26.30;67.04;100659.55;2841491;81;22038;-85
2022/06/28 09:40:36;;;;;;;7.30;6.60;;;;;;;25.92;67.60;100644.88;2843235;81;21427;-85
2022/06/28 09:44:37;;;;;;;7.50;5.97;;;;;;;25.56;67.70;100670.86;2837627;81;21052;-85
2022/06/28 09:48:38;;;;;;;7.75;6.95;;;;;;;25.50;67.88;100666.57;2836032;82;21018;-85
2022/06/28 09:52:43;;;;;;;6.92;6.33;;;;;;;25.77;67.42;100667.83;2843069;82;21024;-84
2022/06/28 09:56:50;;;;;;;5.87;5.30;;;;;;;26.26;65.07;100665.14;2833284;82;21596;-84
2022/06/28 10:00:51;;;;;;;8.90;5.50;;;;;;;26.56;64.99;100663.09;2840457;82;21040;-83
2022/06/28 10:04:53;;;;;;;6.30;5.72;;;;;;;26.73;63.38;100657.93;2868022;82;21058;-85
2022/06/28 10:08:54;;;;;;;6.80;6.20;;;;;;;26.85;63.11;100662.96;2857213;82;20989;-85
2022/06/28 10:17:49;;;;;;;6.90;5.67;;;;;;;26.97;63.93;100664.96;2839253;82;21023;-86
2022/06/28 10:21:59;;;;;;;6.80;6.20;;;;;;;26.49;62.68;100680.37;2839319;82;21027;-85
2022/06/28 10:26:18;;;;;;;6.60;5.47;;;;;;;26.09;63.86;100675.18;2863986;82;21062;-85
2022/06/28 10:30:25;;;;;;;12.82;6.33;;;;;;;25.56;65.29;100681.76;2813642;82;21080;-85
2022/06/28 10:34:51;;;;;;;22.30;10.40;;;;;;;25.15;68.32;100688.64;2869564;82;21003;-86
2022/06/28 10:39:18;;;;;;;8.03;7.25;;;;;;;24.91;69.61;100696.44;2838384;82;21048;-85
2022/06/28 10:43:38;;;;;;;9.83;6.80;;;;;;;24.82;69.71;100690.91;2846884;82;21046;-83
2022/06/28 10:48:09;;;;;;;7.42;6.65;;;;;;;24.84;69.35;100699.70;2849420;82;21010;-84
2022/06/28 10:52:20;;;;;;;7.90;7.10;;;;;;;24.98;69.34;100702.41;2842275;82;21019;-85
2022/06/28 10:56:22;;;;;;;6.97;5.95;;;;;;;25.34;69.12;100706.49;2837491;82;21006;-84
2022/06/28 11:00:26;;;;;;;9.23;7.40;;;;;;;25.61;67.55;100699.64;2881052;82;20979;-84
2022/06/28 11:04:30;;;;;;;7.00;6.40;;;;;;;26.04;66.23;100700.36;2855069;81;21050;-85
2022/06/28 11:08:52;;;;;;;8.38;6.10;;;;;;;26.43;65.30;100690.78;2860218;81;21080;-85
2022/06/28 11:12:53;;;;;;;36.53;24.32;;;;;;;26.72;64.01;100686.23;2884739;81;21030;-85
2022/06/28 11:16:56;;;;;;;103.90;51.53;;;;;;;26.81;63.64;100685.73;2851605;81;21010;-85
2022/06/28 11:20:58;;;;;;;107.43;85.83;;;;;;;27.04;62.85;100671.17;2862652;81;21041;-84
2022/06/28 11:25:02;;;;;;;36.93;32.30;;;;;;;27.22;61.13;100685.38;2832235;81;21029;-85
2022/06/28 11:29:03;;;;;;;18.65;16.32;;;;;;;27.28;60.59;100690.44;2859844;81;21038;-85
2022/06/28 11:33:08;;;;;;;12.25;8.90;;;;;;;27.12;60.97;100680.45;2789974;84;21050;-85
2022/06/28 11:37:08;;;;;;;21.68;17.52;;;;;;;27.15;61.13;100677.26;2871105;81;21133;-86
2022/06/28 11:41:09;;;;;;;26.37;21.68;;;;;;;27.22;60.93;100679.38;2865189;81;21037;-86
2022/06/28 11:45:12;;;;;;;15.83;13.70;;;;;;;27.21;61.02;100670.03;2838840;82;21023;-83
2022/06/28 11:49:27;;;;;;;8.88;7.87;;;;;;;27.34;61.08;100664.97;2836058;82;21497;-86
2022/06/28 11:53:31;;;;;;;8.18;7.47;;;;;;;27.31;59.85;100677.69;2830651;84;21038;-84
2022/06/28 11:57:32;;;;;;;10.53;9.55;;;;;;;27.42;60.44;100668.74;2834332;84;21027;-83
2022/06/28 12:01:40;;;;;;;9.40;8.50;;;;;;;27.56;60.38;100669.44;2809353;84;21538;-84
2022/06/28 12:05:41;;;;;;;30.08;18.17;;;;;;;27.68;59.49;100674.95;2834191;82;21585;-84
2022/06/28 12:09:46;;;;;;;10.50;9.38;;;;;;;27.68;59.01;100669.48;2827173;82;21518;-83
2022/06/28 12:13:47;;;;;;;5.92;5.33;;;;;;;27.61;58.91;100674.22;2781426;82;21011;-84
2022/06/28 12:17:48;;;;;;;6.67;6.08;;;;;;;27.51;59.67;100671.52;2794252;84;21073;-85
2022/06/28 12:22:12;;;;;;;5.55;4.97;;;;;;;27.42;59.90;100673.39;2800519;84;21022;-85
2022/06/28 12:26:14;;;;;;;6.20;5.65;;;;;;;27.49;59.65;100676.86;2821621;84;21042;-85
2022/06/28 12:30:16;;;;;;;6.25;5.67;;;;;;;27.55;59.71;100675.97;2810574;84;21545;-84
2022/06/28 12:34:17;;;;;;;4.78;4.35;;;;;;;27.60;58.71;100669.81;2827163;84;21161;-84
2022/06/28 12:38:18;;;;;;;5.28;4.78;;;;;;;27.85;57.61;100663.38;2807594;82;21046;-85
2022/06/28 12:42:20;;;;;;;5.92;5.28;;;;;;;27.85;57.61;100663.38;2808667;84;21078;-83
2022/06/28 12:46:21;;;;;;;5.58;4.90;;;;;;;28.05;56.89;100658.45;2828772;82;21039;-85
2022/06/28 12:50:22;;;;;;;5.00;4.50;;;;;;;28.15;58.46;100651.59;2838725;82;21088;-84
2022/06/28 12:54:24;;;;;;;5.12;4.15;;;;;;;28.14;56.95;100650.74;2786311;84;21011;-85
2022/06/28 12:58:25;;;;;;;5.50;4.33;;;;;;;27.92;57.13;100631.34;2844177;82;21068;-82
2022/06/28 13:02:28;;;;;;;15.83;3.98;;;;;;;28.07;56.10;100620.77;2846279;82;21042;-85
2022/06/28 13:06:30;;;;;;;3.98;3.52;;;;;;;28.07;56.10;100620.77;2883845;81;21065;-85
2022/06/28 13:10:31;;;;;;;3.65;3.35;;;;;;;28.43;56.15;100643.27;2891750;82;21085;-85
2022/06/28 13:14:33;;;;;;;4.67;4.28;;;;;;;28.67;55.11;100639.16;2819161;82;21048;-85
2022/06/28 13:18:34;;;;;;;4.10;3.60;;;;;;;28.99;54.04;100631.98;2796729;83;21063;-85
2022/06/28 13:22:35;;;;;;;4.25;3.70;;;;;;;29.11;53.94;100615.00;2859784;81;21019;-82
2022/06/28 13:26:38;;;;;;;5.15;4.67;;;;;;;29.11;53.94;100615.00;2831711;82;21031;-82
2022/06/28 13:30:41;;;;;;;4.83;4.03;;;;;;;29.06;54.25;100614.88;2866784;82;21043;-85
2022/06/28 13:34:42;;;;;;;10.15;4.25;;;;;;;28.96;54.24;100618.22;2858777;82;21038;-85
2022/06/28 13:38:44;;;;;;;4.25;3.75;;;;;;;28.82;54.77;100622.31;2810796;82;21071;-85
2022/06/28 13:42:45;;;;;;;5.17;4.67;;;;;;;28.72;55.21;100616.05;2874094;80;21061;-83
2022/06/28 13:46:46;;;;;;;8.55;4.90;;;;;;;28.70;55.88;100623.66;2881255;80;20977;-85
2022/06/28 13:50:48;;;;;;;3.90;3.52;;;;;;;28.64;55.55;100618.05;2864204;81;21067;-82
2022/06/28 13:54:49;;;;;;;5.87;3.62;;;;;;;28.77;55.20;100616.15;2861965;81;20999;-84
2022/06/28 13:58:50;;;;;;;3.80;3.30;;;;;;;28.71;55.04;100613.02;2822146;83;20980;-84
2022/06/28 14:02:52;;;;;;;3.92;3.62;;;;;;;28.67;55.95;100614.53;2859331;81;21010;-83
2022/06/28 14:06:54;;;;;;;4.80;4.30;;;;;;;28.73;54.70;100613.05;2861284;83;21013;-84
2022/06/28 14:10:56;;;;;;;2.85;2.65;;;;;;;28.77;53.93;100606.57;2853631;81;21539;-82
2022/06/28 14:14:57;;;;;;;3.17;2.95;;;;;;;28.89;54.17;100604.69;2842807;83;21035;-85
2022/06/28 14:18:58;;;;;;;2.95;2.75;;;;;;;28.99;53.68;100595.86;2852533;83;21042;-82
2022/06/28 14:23:00;;;;;;;3.08;2.60;;;;;;;29.13;53.67;100604.62;2864850;82;21042;-83
2022/06/28 14:27:01;;;;;;;3.45;2.70;;;;;;;29.19;53.24;100589.95;2857520;82;21010;-83
2022/06/28 14:31:03;;;;;;;3.75;3.42;;;;;;;29.18;53.56;100591.03;2822395;82;21026;-82
2022/06/28 14:35:06;;;;;;;2.92;2.37;;;;;;;29.18;52.89;100591.03;2857421;82;21014;-83
2022/06/28 14:39:08;;;;;;;2.40;2.17;;;;;;;29.06;53.52;100584.75;2847817;82;21058;-83
2022/06/28 14:43:09;;;;;;;4.72;2.50;;;;;;;28.89;53.49;100590.16;2862213;82;21046;-82
2022/06/28 14:47:11;;;;;;;1.95;1.82;;;;;;;28.78;53.39;100589.89;2862517;82;20987;-82
2022/06/28 14:51:18;;;;;;;2.42;2.33;;;;;;;28.74;53.78;100589.27;2824663;82;21257;-87
2022/06/28 14:55:21;;;;;;;2.95;2.65;;;;;;;28.62;54.75;100579.70;2797296;79;21100;-89
2022/06/28 14:59:22;;;;;;;4.50;3.10;;;;;;;28.51;55.30;100566.33;2717231;85;21094;-90
2022/06/28 15:03:24;;;;;;;2.02;1.60;;;;;;;28.58;54.80;100568.39;2764922;84;21048;-90
2022/06/28 15:07:25;;;;;;;5.62;3.02;;;;;;;28.72;55.29;100557.20;2743258;84;21036;-88
2022/06/28 15:11:27;;;;;;;2.50;2.30;;;;;;;28.75;54.39;100551.25;2723339;86;21573;-90
2022/06/28 15:15:31;;;;;;;3.05;2.85;;;;;;;28.74;55.12;100553.13;2702919;84;21076;-90
2022/06/28 15:19:34;;;;;;;2.55;2.35;;;;;;;28.79;54.91;100538.73;2715943;87;21033;-90
2022/06/28 15:32:14;;;;;;;3.87;3.08;;;;;;;28.62;55.11;100539.47;2723053;85;21105;-90
2022/06/28 15:36:16;;;;;;;3.00;2.72;;;;;;;28.61;55.19;100536.45;2762350;84;21560;-90
2022/06/28 15:40:17;;;;;;;3.67;2.92;;;;;;;28.63;55.10;100529.38;2726684;85;21052;-91
2022/06/28 15:44:19;;;;;;;4.85;3.70;;;;;;;28.68;54.51;100527.27;2757456;84;21058;-91
2022/06/28 15:48:21;;;;;;;4.15;3.72;;;;;;;28.71;54.85;100522.70;2731414;84;21097;-91
2022/06/28 15:52:22;;;;;;;4.22;3.47;;;;;;;28.51;54.08;100532.13;2721510;85;21008;-91
2022/06/28 15:56:24;;;;;;;28.27;7.05;;;;;;;28.32;54.29;100525.95;2747969;84;21059;-91
2022/06/28 16:00:26;;;;;;;4.20;3.17;;;;;;;28.22;55.32;100518.34;2737276;86;21057;-91
2022/06/28 16:04:31;;;;;;;3.02;2.83;;;;;;;28.18;54.75;100522.63;2746362;84;21076;-91
2022/06/28 16:08:31;;;;;;;2.87;2.60;;;;;;;28.28;54.70;100521.48;2734710;83;21134;-91
2022/06/28 16:16:52;;;;;;;2.75;2.45;;;;;;;28.49;53.24;100507.73;2751616;84;21029;-91
2022/06/28 16:20:54;;;;;;;2.25;2.05;;;;;;;28.52;53.06;100511.91;2668624;84;21065;-90
2022/06/28 16:24:55;;;;;;;3.90;3.05;;;;;;;28.50;52.45;100509.41;2745793;84;21353;-91
2022/06/28 16:28:57;;;;;;;2.83;2.30;;;;;;;28.36;52.42;100476.53;2736426;84;21073;-91
2022/06/28 16:32:58;;;;;;;2.30;1.90;;;;;;;28.48;52.14;100498.39;2740291;84;21514;-90
2022/06/28 16:36:59;;;;;;;2.77;2.58;;;;;;;28.48;52.57;100487.45;2726473;85;21054;-91
2022/06/28 16:41:01;;;;;;;3.72;2.62;;;;;;;28.45;51.91;100494.77;2718903;86;21027;-92
2022/06/28 16:45:02;;;;;;;3.27;1.87;;;;;;;28.21;52.67;100489.34;2736466;84;21103;-89
2022/06/28 16:49:04;;;;;;;2.98;1.62;;;;;;;28.15;52.78;100495.73;2760054;84;21092;-89
2022/06/28 16:53:05;;;;;;;1.67;1.57;;;;;;;28.15;52.78;100495.73;2755663;84;21595;-89
2022/06/28 16:57:07;;;;;;;4.08;2.35;;;;;;;27.89;53.08;100486.39;2728910;83;20987;-90
2022/06/28 17:01:09;;;;;;;2.50;2.30;;;;;;;27.99;53.25;100514.51;2790246;83;21027;-89
2022/06/28 17:05:12;;;;;;;2.17;2.08;;;;;;;27.93;52.61;100515.47;2795920;84;21031;-89
2022/06/28 17:09:13;;;;;;;3.12;2.58;;;;;;;27.76;52.81;100487.45;2807325;83;21067;-88
2022/06/28 17:13:15;;;;;;;2.60;2.37;;;;;;;27.77;53.67;100509.61;2793737;83;21836;-90
2022/06/28 17:17:18;;;;;;;3.30;2.22;;;;;;;27.75;53.87;100512.27;2791225;84;21019;-92
2022/06/28 17:21:19;;;;;;;2.55;2.35;;;;;;;27.73;53.48;100511.68;2807491;83;21043;-92
2022/06/28 17:25:21;;;;;;;2.35;2.15;;;;;;;27.76;53.52;100520.25;2799452;83;20999;-90
2022/06/28 17:29:23;;;;;;;2.40;1.98;;;;;;;27.79;53.54;100511.58;2816861;83;22361;-95
2022/06/28 17:33:26;;;;;;;1.52;1.20;;;;;;;27.85;53.47;100504.86;2815012;83;21058;-91
2022/06/28 17:37:28;;;;;;;1.65;1.55;;;;;;;27.55;53.29;100494.30;2815523;83;21641;-91
2022/06/28 17:41:31;;;;;;;3.90;2.25;;;;;;;27.55;53.29;100494.30;2816303;83;21051;-91
2022/06/28 17:45:32;;;;;;;3.12;1.70;;;;;;;27.58;53.52;100513.50;2814126;83;21027;-90
2022/06/28 17:49:34;;;;;;;7.25;2.27;;;;;;;27.47;54.35;100506.91;2784117;83;20991;-90
2022/06/28 17:53:36;;;;;;;2.62;2.42;;;;;;;27.34;54.31;100498.38;2782669;83;21038;-90
2022/06/28 17:57:38;;;;;;;3.42;2.42;;;;;;;27.19;55.49;100491.95;2807139;83;21533;-91
2022/06/28 18:01:41;;;;;;;5.22;2.60;;;;;;;26.98;56.03;100491.40;2817884;83;20990;-91
2022/06/28 18:05:44;;;;;;;2.17;1.98;;;;;;;26.85;56.21;100497.87;2822146;83;21063;-91
2022/06/28 18:09:47;;;;;;;4.03;2.47;;;;;;;26.73;56.66;100511.42;2814070;83;21570;-92
2022/06/28 18:13:49;;;;;;;3.00;2.58;;;;;;;26.66;56.81;100511.48;2813956;83;21074;-91
2022/06/28 18:17:50;;;;;;;2.87;2.65;;;;;;;26.56;57.69;100500.30;2819316;84;21576;-91
2022/06/28 18:21:52;;;;;;;3.02;2.75;;;;;;;26.42;59.04;100494.67;2804791;83;20987;-91
2022/06/28 18:25:53;;;;;;;3.30;3.10;;;;;;;26.29;59.81;100516.92;2822069;83;21003;-92
2022/06/28 18:29:55;;;;;;;3.12;2.83;;;;;;;26.15;60.33;100508.56;2744576;84;21169;-91
2022/06/28 18:33:57;;;;;;;2.60;2.40;;;;;;;26.04;60.74;100507.37;2799435;84;21026;-90
2022/06/28 18:37:59;;;;;;;3.25;3.05;;;;;;;25.99;60.61;100520.33;2704309;83;21348;-91
2022/06/28 18:42:00;;;;;;;2.62;2.42;;;;;;;25.86;60.55;100534.05;2817035;83;21019;-91
2022/06/28 18:46:02;;;;;;;4.40;2.65;;;;;;;25.73;60.74;100545.34;2806953;83;21030;-92
2022/06/28 18:50:05;;;;;;;5.97;2.77;;;;;;;25.66;61.08;100544.56;2809102;83;21074;-89
2022/06/28 18:54:06;;;;;;;2.17;1.95;;;;;;;25.60;61.09;100556.34;2757851;83;21097;-91
2022/06/28 18:58:08;;;;;;;2.50;2.30;;;;;;;25.52;61.24;100558.80;2807027;83;21015;-87
2022/06/28 19:02:11;;;;;;;2.62;2.17;;;;;;;25.47;61.28;100560.81;2799984;83;20983;-91
2022/06/28 19:06:12;;;;;;;2.20;2.00;;;;;;;25.41;61.46;100564.38;2793355;83;21075;-91
2022/06/28 19:10:14;;;;;;;4.15;2.35;;;;;;;25.36;61.63;100560.13;2786053;83;21018;-89
2022/06/28 19:14:15;;;;;;;3.08;2.40;;;;;;;25.32;61.82;100572.48;2785089;83;21086;-93
2022/06/28 19:18:17;;;;;;;3.95;2.00;;;;;;;25.30;61.80;100574.58;2799280;83;21011;-91